Gurdon, AR (71743)

2:13 AM CDT on April 25, 2015 (GMT -0500)
Florence Mem AP, Arkadelphia, | | Change Station
CLOSE
Current Station
Airport
Location: Florence Mem AP, Arkadelphia,,
Elevation: 184 ft
Nearby Weather Stations

Elev 184 ft 34.10 °N, 93.07 °W | Updated 17 minutes ago

Partly Cloudy
Partly Cloudy
62 °F
Feels Like 62 °F
N
5
Wind Variable Wind from SSW

Today
High -- | Low -- °F
--% Chance of Precip.
Yesterday
High -- | Low -- °F
Precip. -- in
6:30 AM 7:51 PM
Waxing Crescent, 43% visible
Pressure 29.74 in
Visibility 6.0 miles
Clouds Overcast 200 ft
Dew Point 62 °F
Humidity 100%
Rainfall 0.00 in
Snow Depth Not available.
UV 0 out of 12
Pollen 5.20 out of 12
Air Quality Not available.
Flu Activity Sporadic
METAR KADF 250656Z AUTO 20004KT 6SM BR OVC002 17/17 A2970 RMK AO2 T01660166 SLP070

More Conditions Fewer Conditions

Pressure 29.74 in
Visibility 6.0 miles
Clouds Overcast 200 ft
Dew Point 62 °F
Humidity 100%
Rainfall 0.00 in
Snow Depth Not available.
UV 0 out of 12
Pollen 5.20 out of 12
Air Quality Not available.
Flu Activity Sporadic
METAR KADF 250656Z AUTO 20004KT 6SM BR OVC002 17/17 A2970 RMK AO2 T01660166 SLP070

More Conditions Fewer Conditions

10-Day Weather Forecast

Almanac

Astronomy

Apr. 25, 2015 Rise Set
Actual Time
Civil Twilight
Nautical Twilight
Astronomical Twilight
Moon
Length of Visible Light
Length of Day
Tomorrow will be .
, % of the Moon is Illuminated

Today's Extremes

State Highs State Lows

Community

WunderPhotos

Upload Photos

1,816,624 photos uploaded!

WunderBlogs® & News

Nearby

Air Quality

  Air Quality AQ Index Pollutant
Not available.

Snow Depth

Station Depth Elevation

Earthquake Activity

City Distance Mag. Time & Date
Minimum magnitude displayed is 2.5.

Coastal Water Temperatures

Place Temperature

Stations

Nearby Weather Stations

Station Location Temp. Windchill Dew Point Humidity Wind Precip. Elev Updated Type